Time;durP1;ratioP1;P1;durP2;ratioP2;P2;SDS_P1;SDS_P2;PMS_P1;PMS_P2;Temp;Humidity;BMP_temperature;BMP_pressure;BME280_temperature;BME280_humidity;BME280_pressure;Samples;Min_cycle;Max_cycle;Signal;HPM_P1;HPM_P2
2023/05/05 00:03:41;;;;;;;0.82;0.82;;;;;;;0.10;76.40;101788.31;10648721;27;20063;-75
2023/05/05 00:08:43;;;;;;;1.75;1.00;;;;;;;0.03;76.65;101786.53;10610469;28;20050;-79
2023/05/05 00:13:46;;;;;;;2.10;0.80;;;;;;;0.02;76.67;101782.16;10608087;28;20485;-74
2023/05/05 00:18:48;;;;;;;0.95;0.82;;;;;;;0.12;76.43;101782.72;10628663;28;20124;-76
2023/05/05 00:23:50;;;;;;;3.53;1.20;;;;;;;-0.01;76.60;101788.75;10653266;27;20043;-77
2023/05/05 00:28:58;;;;;;;1.13;0.80;;;;;;;-0.04;76.85;101789.13;10653306;27;20501;-77
2023/05/05 00:34:00;;;;;;;0.83;0.70;;;;;;;-0.09;76.93;101797.75;10644079;27;20035;-77
2023/05/05 00:39:02;;;;;;;1.17;0.90;;;;;;;0.14;76.77;101795.00;10661962;27;20049;-77
2023/05/05 00:44:05;;;;;;;0.80;0.63;;;;;;;0.12;76.51;101794.34;10670077;27;20046;-77
2023/05/05 00:49:08;;;;;;;0.70;0.70;;;;;;;-0.41;77.87;101796.19;10614985;27;20066;-77
2023/05/05 00:54:11;;;;;;;1.45;1.25;;;;;;;-0.25;78.08;101795.22;10633361;27;20051;-77
2023/05/05 00:59:13;;;;;;;1.50;0.95;;;;;;;-0.29;78.32;101790.38;10642082;27;20043;-76
2023/05/05 01:04:16;;;;;;;3.20;1.20;;;;;;;-0.26;78.09;101796.22;10651240;27;20040;-77
2023/05/05 01:09:42;;;;;;;0.82;0.80;;;;;;;-0.16;78.34;101798.69;10654261;27;20409;-77
2023/05/05 01:15:00;;;;;;;1.60;0.90;;;;;;;-0.26;78.34;101795.41;10620190;27;20031;-78
2023/05/05 01:20:24;;;;;;;1.63;0.90;;;;;;;-0.37;78.03;101794.78;10635967;27;20067;-77
2023/05/05 01:25:29;;;;;;;3.97;1.17;;;;;;;-0.33;78.71;101801.53;10615104;27;20059;-76
2023/05/05 01:30:57;;;;;;;0.65;0.65;;;;;;;-0.47;78.78;101799.63;10651335;27;20046;-77
2023/05/05 01:36:05;;;;;;;1.58;1.00;;;;;;;-0.63;79.95;101805.13;10625075;27;20421;-77
2023/05/05 01:41:12;;;;;;;1.65;0.73;;;;;;;-0.77;79.92;101804.03;10628522;27;20040;-77
2023/05/05 01:46:15;;;;;;;1.73;0.80;;;;;;;-0.73;80.59;101799.94;10641719;27;20046;-77
2023/05/05 01:51:18;;;;;;;1.20;1.00;;;;;;;-0.79;80.66;101799.84;10641153;27;20051;-76
2023/05/05 01:56:22;;;;;;;1.10;0.95;;;;;;;-0.77;81.19;101808.56;10643470;27;20047;-77
2023/05/05 02:01:25;;;;;;;1.98;1.17;;;;;;;-0.61;80.89;101817.41;10632544;27;20039;-77
2023/05/05 02:06:31;;;;;;;0.95;0.80;;;;;;;-0.42;80.38;101809.84;10635260;27;20061;-76
2023/05/05 02:11:33;;;;;;;2.20;0.88;;;;;;;-0.32;80.37;101803.19;10612965;27;20044;-77
2023/05/05 02:16:36;;;;;;;1.02;0.93;;;;;;;-0.23;79.92;101811.22;10627561;27;20039;-77
2023/05/05 02:21:39;;;;;;;1.63;1.00;;;;;;;-0.25;80.16;101811.41;10596330;27;20046;-77
2023/05/05 02:26:43;;;;;;;1.00;0.90;;;;;;;-0.05;79.73;101809.88;10597002;27;20043;-77
2023/05/05 02:31:50;;;;;;;1.33;1.10;;;;;;;0.02;79.53;101812.69;10601327;27;20039;-77
2023/05/05 02:37:02;;;;;;;0.85;0.80;;;;;;;0.13;79.19;101817.63;10562668;27;20054;-76
2023/05/05 02:42:10;;;;;;;2.85;1.20;;;;;;;0.27;78.48;101808.72;10584168;27;20035;-75
2023/05/05 02:47:12;;;;;;;1.50;0.90;;;;;;;0.14;78.93;101821.16;10588776;27;20040;-74
2023/05/05 02:52:14;;;;;;;1.63;1.02;;;;;;;0.05;79.06;101817.72;10595849;27;20039;-77
2023/05/05 02:57:20;;;;;;;1.33;1.20;;;;;;;0.14;79.61;101813.91;10590508;27;20047;-77
2023/05/05 03:03:00;;;;;;;0.93;0.80;;;;;;;0.29;79.25;101820.16;10593570;27;20035;-77
2023/05/05 03:08:16;;;;;;;1.35;0.80;;;;;;;0.26;79.10;101817.81;10592148;27;20046;-76
2023/05/05 03:13:19;;;;;;;1.20;0.90;;;;;;;0.23;79.14;101818.19;10572579;27;20601;-77
2023/05/05 03:18:23;;;;;;;2.47;1.00;;;;;;;0.42;78.41;101821.38;10563910;27;20044;-77
2023/05/05 03:23:32;;;;;;;1.73;1.30;;;;;;;0.44;78.39;101824.72;10576275;27;20048;-76
2023/05/05 03:28:35;;;;;;;2.22;1.00;;;;;;;0.56;78.19;101826.78;10596727;27;20501;-78
2023/05/05 03:34:09;;;;;;;1.30;1.20;;;;;;;1.17;76.85;101830.06;10619692;27;20417;-75
2023/05/05 03:39:18;;;;;;;3.40;1.48;;;;;;;1.58;75.52;101828.66;10624310;27;20519;-76
2023/05/05 03:44:21;;;;;;;2.08;1.08;;;;;;;1.90;75.04;101838.91;10608552;27;20054;-77
2023/05/05 03:49:23;;;;;;;1.38;1.20;;;;;;;1.72;75.78;101833.97;10634584;27;20050;-77
2023/05/05 03:54:27;;;;;;;1.20;1.00;;;;;;;1.91;76.38;101840.63;10602814;27;20541;-77
2023/05/05 03:59:29;;;;;;;1.58;1.38;;;;;;;1.62;76.89;101846.16;10643308;27;20039;-76
2023/05/05 04:04:32;;;;;;;3.03;1.25;;;;;;;1.03;79.56;101862.53;10646851;27;20038;-77
2023/05/05 04:09:43;;;;;;;1.33;1.20;;;;;;;0.70;81.91;101854.84;10610784;27;20046;-75
2023/05/05 04:14:46;;;;;;;1.45;1.30;;;;;;;0.63;82.98;101863.84;10600846;27;20031;-76
2023/05/05 04:19:54;;;;;;;3.25;1.90;;;;;;;0.94;83.28;101866.38;10626847;27;20039;-76
2023/05/05 04:24:57;;;;;;;4.03;2.13;;;;;;;1.36;81.85;101865.63;10641517;27;20853;-77
2023/05/05 04:29:59;;;;;;;4.03;2.10;;;;;;;1.44;79.99;101869.06;10620411;27;20043;-76
2023/05/05 04:35:02;;;;;;;2.95;1.70;;;;;;;1.77;79.11;101871.28;10632260;27;20043;-76
2023/05/05 04:40:06;;;;;;;1.63;1.30;;;;;;;2.48;77.04;101873.97;10634265;27;20042;-77
2023/05/05 04:45:10;;;;;;;1.58;1.13;;;;;;;2.30;74.91;101882.59;10633023;27;20043;-77
2023/05/05 04:50:13;;;;;;;0.95;0.88;;;;;;;2.18;75.06;101895.81;10587136;27;20047;-77
2023/05/05 04:55:15;;;;;;;1.27;0.80;;;;;;;1.42;77.60;101914.41;10630259;27;20039;-76
2023/05/05 05:00:18;;;;;;;0.30;0.30;;;;;;;0.59;80.38;101918.25;10616159;27;20042;-76
2023/05/05 05:05:20;;;;;;;0.70;0.68;;;;;;;0.43;82.28;101920.25;10624300;27;20050;-76
2023/05/05 05:10:23;;;;;;;0.77;0.68;;;;;;;0.24;82.61;101930.56;10626809;27;20050;-76
2023/05/05 05:15:25;;;;;;;0.80;0.73;;;;;;;0.06;82.90;101927.34;10629171;27;20153;-76
2023/05/05 05:20:29;;;;;;;2.03;0.90;;;;;;;0.18;83.26;101938.56;10646752;27;20066;-77
2023/05/05 05:25:31;;;;;;;3.45;0.80;;;;;;;0.01;83.63;101935.13;10605309;27;20031;-77
2023/05/05 05:30:33;;;;;;;1.42;1.00;;;;;;;0.19;84.52;101940.22;10613153;27;20505;-77
2023/05/05 05:35:38;;;;;;;1.55;1.00;;;;;;;0.39;83.67;101954.06;10604233;27;20040;-77
2023/05/05 05:40:41;;;;;;;1.10;0.98;;;;;;;0.40;83.25;101961.97;10584689;27;20043;-76
2023/05/05 05:45:43;;;;;;;1.40;1.08;;;;;;;0.86;82.67;101953.75;10617740;27;20401;-75
2023/05/05 05:50:49;;;;;;;1.45;1.08;;;;;;;1.67;81.19;101960.88;10646655;27;20418;-76
2023/05/05 05:56:01;;;;;;;1.52;1.00;;;;;;;1.98;78.77;101968.75;10577243;27;20042;-76
2023/05/05 06:01:04;;;;;;;1.20;1.10;;;;;;;2.38;76.40;101974.53;10622998;27;20039;-76
2023/05/05 06:06:06;;;;;;;1.25;1.00;;;;;;;2.86;74.94;101969.31;10607374;27;20058;-75
2023/05/05 06:11:09;;;;;;;1.58;1.00;;;;;;;2.66;74.45;101980.84;10595630;27;20079;-77
2023/05/05 06:16:11;;;;;;;1.58;1.20;;;;;;;2.44;74.51;101979.19;10607285;27;20050;-76
2023/05/05 06:21:24;;;;;;;0.90;0.80;;;;;;;2.82;73.64;101987.84;10634506;27;20420;-78
2023/05/05 06:26:37;;;;;;;1.45;1.17;;;;;;;2.74;71.16;101996.09;10628488;27;20087;-77
2023/05/05 06:31:45;;;;;;;1.20;1.10;;;;;;;2.91;69.92;101999.38;10611498;27;20583;-76
2023/05/05 06:36:47;;;;;;;1.70;1.08;;;;;;;3.81;66.84;101985.66;10629095;27;20401;-77
2023/05/05 06:41:49;;;;;;;3.17;1.15;;;;;;;4.60;64.37;101998.59;10625632;27;20148;-75
2023/05/05 06:46:52;;;;;;;1.25;0.90;;;;;;;5.29;61.83;101994.56;10634412;27;20046;-75
2023/05/05 06:51:55;;;;;;;1.67;0.93;;;;;;;6.40;59.51;102000.56;10617264;27;20038;-76
2023/05/05 06:57:02;;;;;;;1.27;1.00;;;;;;;6.50;57.50;101991.91;10653132;27;20027;-75
2023/05/05 07:02:05;;;;;;;1.23;1.02;;;;;;;7.28;56.35;101994.13;10651355;27;20564;-76
2023/05/05 07:07:07;;;;;;;1.55;1.20;;;;;;;5.68;58.72;101999.88;10624964;27;20054;-76
2023/05/05 07:12:09;;;;;;;2.47;1.00;;;;;;;4.57;60.94;102014.47;10624463;27;20047;-75
2023/05/05 07:17:11;;;;;;;1.00;0.90;;;;;;;4.47;59.89;102018.44;10638982;27;20039;-74
2023/05/05 07:22:13;;;;;;;1.40;0.90;;;;;;;5.93;55.28;102005.47;10642889;27;20525;-74
2023/05/05 07:27:15;;;;;;;1.95;0.80;;;;;;;7.01;51.99;102010.78;10619664;27;20035;-74
2023/05/05 07:32:18;;;;;;;0.60;0.60;;;;;;;7.50;49.15;102015.34;10634779;27;20038;-74
2023/05/05 07:37:21;;;;;;;1.27;0.90;;;;;;;7.80;49.70;102003.63;10652506;27;20057;-74
2023/05/05 07:42:23;;;;;;;1.20;0.80;;;;;;;7.76;47.85;102011.44;10653385;27;20047;-74
2023/05/05 07:47:25;;;;;;;1.30;0.88;;;;;;;6.25;50.43;102021.88;10634938;27;20508;-74
2023/05/05 07:52:28;;;;;;;0.90;0.80;;;;;;;5.45;50.78;102029.47;10630870;27;20043;-74
2023/05/05 07:57:30;;;;;;;1.77;1.00;;;;;;;4.65;53.05;102028.69;10623147;27;20410;-74
2023/05/05 08:02:32;;;;;;;1.85;1.00;;;;;;;4.00;53.78;102034.84;10619003;27;20057;-75
2023/05/05 08:07:37;;;;;;;1.00;0.80;;;;;;;4.60;54.20;102038.53;10634132;28;20047;-73
2023/05/05 08:12:39;;;;;;;1.10;1.10;;;;;;;4.80;53.49;102026.63;10652041;28;20409;-74
2023/05/05 08:17:48;;;;;;;1.40;1.13;;;;;;;5.12;53.05;102024.94;10651839;28;20039;-74
2023/05/05 08:22:51;;;;;;;1.45;1.20;;;;;;;4.94;52.59;102024.75;10649792;27;20050;-74
2023/05/05 08:27:53;;;;;;;1.13;1.00;;;;;;;4.68;51.86;102035.59;10632544;28;20047;-75
2023/05/05 08:33:02;;;;;;;0.73;0.73;;;;;;;4.49;50.48;102029.94;10610503;28;20054;-75
2023/05/05 08:38:05;;;;;;;2.00;0.82;;;;;;;4.40;50.06;102035.78;10645650;28;20046;-75
2023/05/05 08:43:07;;;;;;;0.50;0.50;;;;;;;3.98;49.22;102056.75;10644953;28;20055;-73
2023/05/05 08:48:10;;;;;;;2.15;0.80;;;;;;;3.78;50.25;102053.94;10652262;28;20054;-74
2023/05/05 08:53:16;;;;;;;1.45;0.70;;;;;;;3.83;51.08;102053.38;10633674;28;20039;-75
2023/05/05 08:58:18;;;;;;;0.82;0.50;;;;;;;4.43;50.47;102057.09;10612826;28;20039;-74
2023/05/05 09:03:21;;;;;;;0.57;0.57;;;;;;;4.32;50.07;102063.97;10632489;28;20035;-74
2023/05/05 09:08:23;;;;;;;0.80;0.80;;;;;;;4.42;50.91;102067.16;10644163;27;20046;-74
2023/05/05 09:13:25;;;;;;;1.17;0.70;;;;;;;4.92;50.79;102064.91;10617452;28;20390;-75
2023/05/05 09:18:28;;;;;;;1.23;0.80;;;;;;;5.19;51.01;102064.88;10622011;27;20036;-75
2023/05/05 09:23:31;;;;;;;1.73;0.90;;;;;;;5.50;50.12;102065.06;10628701;27;20394;-73
2023/05/05 09:28:33;;;;;;;1.63;0.77;;;;;;;4.96;49.13;102065.31;10640741;27;20094;-75
2023/05/05 09:33:36;;;;;;;0.90;0.70;;;;;;;4.80;49.57;102072.84;10617659;27;20047;-75
2023/05/05 09:38:38;;;;;;;0.85;0.70;;;;;;;4.31;50.52;102089.47;10622093;27;20035;-75
2023/05/05 09:43:51;;;;;;;0.73;0.73;;;;;;;4.19;51.15;102094.69;10640923;27;20047;-74
2023/05/05 09:48:53;;;;;;;0.80;0.75;;;;;;;4.37;52.27;102088.66;10621306;27;20045;-76
2023/05/05 09:53:56;;;;;;;0.88;0.88;;;;;;;4.26;51.50;102091.97;10640012;27;20043;-75
2023/05/05 09:59:09;;;;;;;2.15;1.02;;;;;;;4.30;51.58;102090.50;10640216;27;20528;-75
2023/05/05 10:04:31;;;;;;;0.70;0.70;;;;;;;4.35;49.47;102096.19;10644643;27;20042;-75
2023/05/05 10:09:34;;;;;;;2.03;0.73;;;;;;;4.71;48.60;102093.16;10649907;27;20539;-75
2023/05/05 10:14:37;;;;;;;1.67;0.70;;;;;;;4.94;47.02;102083.75;10653654;27;20047;-75
2023/05/05 10:19:40;;;;;;;0.70;0.60;;;;;;;5.09;46.36;102082.50;10679906;27;20465;-75
2023/05/05 10:24:46;;;;;;;0.68;0.68;;;;;;;5.30;46.08;102089.59;10700346;27;20042;-75
2023/05/05 10:29:54;;;;;;;1.98;0.85;;;;;;;5.24;46.13;102101.34;10643315;27;20043;-75
2023/05/05 10:35:02;;;;;;;;;;;;;;;4.12;53.07;102111.97;10595927;27;20031;-73
2023/05/05 10:40:06;;;;;;;3.05;1.73;;;;;;;3.27;56.51;102124.81;10636967;27;19919;-73
2023/05/05 10:45:08;;;;;;;1.83;0.70;;;;;;;2.88;58.14;102125.31;10638668;27;20049;-73
2023/05/05 10:50:29;;;;;;;1.30;0.60;;;;;;;2.49;62.69;102144.72;10636147;27;20042;-73
2023/05/05 10:55:37;;;;;;;0.63;0.60;;;;;;;2.11;61.69;102131.34;10599143;28;20040;-74
2023/05/05 11:00:40;;;;;;;1.23;0.60;;;;;;;2.39;62.43;102120.63;10594898;28;20039;-73
2023/05/05 11:06:07;;;;;;;0.85;0.50;;;;;;;2.78;60.42;102123.94;10613359;28;20042;-73
2023/05/05 11:11:10;;;;;;;1.00;0.80;;;;;;;3.53;60.10;102126.91;10616627;27;20444;-73
2023/05/05 11:16:41;;;;;;;1.30;1.15;;;;;;;4.01;58.51;102121.56;10613117;28;20053;-73
2023/05/05 11:21:59;;;;;;;1.33;0.80;;;;;;;4.30;56.09;102112.25;10613671;28;20035;-73
2023/05/05 11:27:02;;;;;;;1.58;0.98;;;;;;;4.54;55.30;102105.44;10594933;28;20040;-73
2023/05/05 11:32:14;;;;;;;2.08;1.10;;;;;;;4.47;53.22;102112.72;10597611;28;20050;-74
2023/05/05 11:37:17;;;;;;;1.80;0.90;;;;;;;4.28;52.51;102108.91;10615515;27;20414;-72
2023/05/05 11:42:23;;;;;;;0.75;0.75;;;;;;;4.09;50.76;102107.78;10629556;27;20497;-72
2023/05/05 11:47:27;;;;;;;2.47;0.80;;;;;;;3.97;49.44;102114.81;10634011;27;20389;-73
2023/05/05 11:52:29;;;;;;;0.70;0.70;;;;;;;3.97;49.50;102124.84;10629498;27;20042;-74
2023/05/05 11:57:31;;;;;;;1.17;0.95;;;;;;;3.62;55.06;102138.44;10651444;27;20047;-73
2023/05/05 12:02:33;;;;;;;1.00;0.90;;;;;;;3.17;59.10;102140.59;10650985;27;20031;-73
2023/05/05 12:07:36;;;;;;;1.02;0.80;;;;;;;2.72;60.29;102147.25;10632954;27;20046;-74
2023/05/05 12:12:39;;;;;;;1.90;1.00;;;;;;;2.52;61.26;102159.75;10631163;28;20047;-73
2023/05/05 12:17:44;;;;;;;1.70;1.30;;;;;;;2.56;62.13;102147.47;10606033;27;20428;-74
2023/05/05 12:22:47;;;;;;;1.30;1.20;;;;;;;2.38;61.50;102154.16;10649823;27;20035;-73
2023/05/05 12:27:52;;;;;;;1.58;1.17;;;;;;;2.44;61.88;102158.00;10651800;28;20054;-73
2023/05/05 12:33:02;;;;;;;2.60;1.60;;;;;;;2.70;60.67;102146.59;10648739;28;20445;-72
2023/05/05 12:38:04;;;;;;;2.72;1.00;;;;;;;3.19;57.01;102137.69;10640598;27;20050;-72
2023/05/05 12:43:06;;;;;;;2.17;1.13;;;;;;;3.17;54.64;102135.19;10650705;27;20042;-72
2023/05/05 12:48:21;;;;;;;3.35;1.40;;;;;;;3.37;54.49;102129.06;10651488;27;20055;-72
2023/05/05 12:53:25;;;;;;;3.30;1.30;;;;;;;3.75;53.91;102121.41;10618465;27;20042;-72
2023/05/05 12:58:30;;;;;;;3.30;1.27;;;;;;;4.17;52.61;102117.66;10640039;27;20043;-73
2023/05/05 13:03:32;;;;;;;2.63;1.30;;;;;;;4.41;51.85;102110.84;10652008;27;20042;-73
2023/05/05 13:08:42;;;;;;;1.00;0.90;;;;;;;4.57;49.93;102109.63;10619397;27;20043;-74
2023/05/05 13:13:45;;;;;;;1.23;0.70;;;;;;;4.74;48.26;102116.38;10625356;27;20045;-73
2023/05/05 13:18:48;;;;;;;1.15;1.05;;;;;;;4.63;49.13;102123.22;10627570;27;20058;-73
2023/05/05 13:23:51;;;;;;;0.80;0.80;;;;;;;4.50;47.90;102124.03;10582500;28;20417;-74
2023/05/05 13:28:53;;;;;;;0.93;0.70;;;;;;;4.26;49.41;102124.56;10617173;28;20058;-74
2023/05/05 13:33:55;;;;;;;1.15;1.05;;;;;;;4.11;51.34;102129.31;10612612;27;20066;-73
2023/05/05 13:38:58;;;;;;;0.80;0.70;;;;;;;4.29;50.15;102143.19;10640609;27;20138;-73
2023/05/05 13:44:00;;;;;;;0.80;0.80;;;;;;;4.46;47.80;102130.91;10641106;27;20046;-74
2023/05/05 13:49:02;;;;;;;2.40;1.10;;;;;;;4.37;47.84;102136.75;10617910;27;20043;-74
2023/05/05 13:54:05;;;;;;;1.33;0.70;;;;;;;4.05;47.32;102141.00;10598535;28;20048;-74
2023/05/05 13:59:08;;;;;;;2.22;1.08;;;;;;;4.08;47.42;102146.03;10598233;28;20044;-74
2023/05/05 14:04:10;;;;;;;1.15;0.80;;;;;;;4.11;47.97;102142.91;10615017;28;20042;-74
2023/05/05 14:09:12;;;;;;;0.93;0.80;;;;;;;4.06;48.70;102150.81;10615505;28;20391;-74
2023/05/05 14:14:15;;;;;;;1.20;0.80;;;;;;;4.05;48.92;102151.88;10615516;28;20039;-74
2023/05/05 14:19:17;;;;;;;1.00;0.90;;;;;;;4.04;48.63;102155.63;10614322;27;20039;-75
2023/05/05 14:24:19;;;;;;;1.52;1.00;;;;;;;4.35;48.81;102145.13;10633649;27;20035;-76
2023/05/05 14:29:22;;;;;;;2.63;1.05;;;;;;;4.56;48.87;102141.41;10643319;27;20050;-77
2023/05/05 14:34:24;;;;;;;1.73;1.08;;;;;;;4.69;47.42;102133.31;10653093;27;20046;-77
2023/05/05 14:39:26;;;;;;;1.63;1.00;;;;;;;4.44;48.94;102143.88;10638111;27;20034;-76
2023/05/05 14:44:28;;;;;;;1.67;1.20;;;;;;;4.37;48.65;102143.03;10664094;27;20638;-76
2023/05/05 14:49:31;;;;;;;5.93;1.52;;;;;;;4.26;49.74;102150.91;10650520;27;20047;-74
2023/05/05 14:54:33;;;;;;;5.05;1.40;;;;;;;3.94;49.95;102159.53;10659890;27;20039;-75
2023/05/05 14:59:35;;;;;;;1.60;1.23;;;;;;;3.87;50.05;102158.66;10641357;27;20046;-74
2023/05/05 15:04:37;;;;;;;1.40;1.00;;;;;;;3.86;49.66;102162.41;10625847;27;20039;-73
2023/05/05 15:09:40;;;;;;;2.80;1.52;;;;;;;3.94;49.96;102183.13;10619305;27;20055;-74
2023/05/05 15:14:42;;;;;;;2.80;1.23;;;;;;;3.77;50.61;102168.19;10642711;27;20038;-74
2023/05/05 15:19:44;;;;;;;1.63;1.42;;;;;;;3.92;50.67;102168.91;10618874;27;20035;-76
2023/05/05 15:24:46;;;;;;;1.20;1.10;;;;;;;3.80;51.11;102165.91;10619209;27;20523;-75
2023/05/05 15:29:49;;;;;;;2.30;1.10;;;;;;;3.92;50.16;102158.88;10647136;27;20429;-73
2023/05/05 15:34:51;;;;;;;2.28;1.85;;;;;;;3.91;51.78;102157.22;10602073;27;20042;-74
2023/05/05 15:39:57;;;;;;;1.30;1.20;;;;;;;4.01;50.35;102153.31;10629442;27;20067;-74
2023/05/05 15:45:02;;;;;;;2.30;0.85;;;;;;;3.94;50.74;102162.25;10653222;27;20501;-75
2023/05/05 15:50:06;;;;;;;3.83;1.60;;;;;;;4.10;50.56;102158.34;10594444;28;20051;-74
2023/05/05 15:55:09;;;;;;;1.05;0.95;;;;;;;4.62;49.27;102161.50;10597860;27;20035;-73
2023/05/05 16:00:12;;;;;;;2.47;1.30;;;;;;;4.53;49.47;102158.97;10610351;27;20046;-74
2023/05/05 16:05:14;;;;;;;1.38;1.25;;;;;;;4.66;49.03;102154.59;10615589;27;20039;-75
2023/05/05 16:10:18;;;;;;;1.25;0.80;;;;;;;4.38;47.16;102157.44;10610940;28;20042;-75
2023/05/05 16:15:20;;;;;;;1.75;1.10;;;;;;;4.37;46.55;102167.47;10647247;28;20146;-73
2023/05/05 16:20:22;;;;;;;1.30;1.20;;;;;;;4.28;46.44;102149.66;10624536;27;20520;-73
2023/05/05 16:25:25;;;;;;;1.77;1.10;;;;;;;3.99;46.60;102156.19;10649417;27;20043;-74
2023/05/05 16:30:28;;;;;;;1.38;1.00;;;;;;;3.98;45.80;102151.81;10635727;27;20050;-74
2023/05/05 16:35:30;;;;;;;1.58;1.20;;;;;;;4.20;45.92;102156.13;10657448;27;20035;-74
2023/05/05 16:40:32;;;;;;;2.05;1.40;;;;;;;4.24;45.30;102165.53;10638334;27;20059;-74
2023/05/05 16:45:34;;;;;;;1.83;1.30;;;;;;;4.07;45.37;102164.19;10637529;27;20038;-73
2023/05/05 16:50:37;;;;;;;3.13;1.20;;;;;;;4.09;45.63;102172.97;10637787;27;20046;-75
2023/05/05 16:55:39;;;;;;;3.28;1.60;;;;;;;4.15;45.53;102165.91;10639654;27;20031;-74
2023/05/05 17:00:45;;;;;;;2.20;1.20;;;;;;;4.12;45.02;102171.75;10616886;27;20420;-74
2023/05/05 17:05:48;;;;;;;6.80;1.42;;;;;;;3.86;45.63;102184.13;10658004;27;20039;-74
2023/05/05 17:10:50;;;;;;;3.08;1.00;;;;;;;3.57;45.92;102190.59;10638214;27;20062;-74
2023/05/05 17:15:52;;;;;;;1.92;1.20;;;;;;;3.37;46.75;102194.19;10656432;27;20035;-74
2023/05/05 17:20:54;;;;;;;2.05;1.00;;;;;;;3.28;46.60;102191.59;10652783;27;20042;-75
2023/05/05 17:25:58;;;;;;;2.47;0.85;;;;;;;3.21;46.96;102190.72;10640416;27;20431;-73
2023/05/05 17:31:00;;;;;;;4.05;1.17;;;;;;;3.08;46.37;102200.59;10657559;27;20042;-74
2023/05/05 17:36:03;;;;;;;1.70;1.00;;;;;;;2.99;46.33;102203.44;10634350;27;20042;-74
2023/05/05 17:41:05;;;;;;;1.38;0.80;;;;;;;2.99;45.98;102206.16;10664453;27;20067;-74
2023/05/05 17:46:07;;;;;;;1.40;1.30;;;;;;;3.02;46.27;102204.91;10622613;27;20039;-73
2023/05/05 17:51:10;;;;;;;1.60;0.93;;;;;;;3.21;46.47;102204.28;10640668;27;20039;-73
2023/05/05 17:56:12;;;;;;;2.38;1.60;;;;;;;3.19;46.83;102208.22;10616102;27;20047;-73
2023/05/05 18:01:21;;;;;;;1.92;1.27;;;;;;;3.20;47.37;102215.31;10660309;27;20416;-73
2023/05/05 18:06:23;;;;;;;2.78;1.42;;;;;;;3.07;47.64;102218.72;10653408;27;20031;-73
2023/05/05 18:11:27;;;;;;;2.47;1.52;;;;;;;3.00;48.45;102212.41;10648165;27;20043;-73
2023/05/05 18:16:29;;;;;;;2.53;1.40;;;;;;;3.00;48.98;102217.84;10664798;27;20054;-74
2023/05/05 18:21:32;;;;;;;1.42;1.20;;;;;;;2.92;50.14;102212.50;10624613;27;20035;-74
2023/05/05 18:26:35;;;;;;;3.70;1.55;;;;;;;2.83;50.76;102216.41;10652356;27;20047;-74
2023/05/05 18:31:37;;;;;;;3.78;1.50;;;;;;;2.80;51.07;102214.06;10648971;27;20070;-75
2023/05/05 18:36:39;;;;;;;1.40;1.13;;;;;;;2.84;51.28;102207.22;10623561;27;20038;-75
2023/05/05 18:41:41;;;;;;;4.07;1.00;;;;;;;2.59;52.36;102214.84;10626965;27;20042;-75
2023/05/05 18:46:45;;;;;;;1.20;1.10;;;;;;;2.43;53.11;102213.22;10642013;27;20057;-75
2023/05/05 18:51:47;;;;;;;1.13;1.00;;;;;;;2.41;53.62;102220.66;10662273;27;20409;-74
2023/05/05 18:56:50;;;;;;;1.92;1.30;;;;;;;2.49;54.05;102217.88;10639056;27;20038;-73
2023/05/05 19:01:53;;;;;;;1.90;1.05;;;;;;;2.47;54.21;102222.63;10627006;27;20047;-73
2023/05/05 19:06:55;;;;;;;1.70;1.42;;;;;;;2.49;54.77;102217.88;10641514;27;20054;-72
2023/05/05 19:11:58;;;;;;;3.72;1.33;;;;;;;2.40;54.88;102225.25;10644115;27;20409;-72
2023/05/05 19:17:00;;;;;;;2.35;1.00;;;;;;;2.35;55.00;102222.28;10650834;27;20045;-73
2023/05/05 19:22:02;;;;;;;1.95;1.33;;;;;;;2.35;55.41;102224.13;10604346;27;20039;-72
2023/05/05 19:27:06;;;;;;;1.55;1.15;;;;;;;2.36;55.74;102231.22;10632610;27;20047;-72
2023/05/05 19:32:09;;;;;;;3.00;1.58;;;;;;;2.39;56.02;102231.69;10627430;27;20035;-72
2023/05/05 19:37:11;;;;;;;3.40;1.30;;;;;;;2.43;55.62;102232.19;10641568;27;20027;-74
2023/05/05 19:42:14;;;;;;;3.05;1.33;;;;;;;2.43;56.11;102226.75;10621862;27;20051;-73
2023/05/05 19:47:19;;;;;;;1.60;1.15;;;;;;;2.41;56.53;102234.22;10647920;27;20566;-74
2023/05/05 19:52:22;;;;;;;2.35;1.30;;;;;;;2.41;56.12;102229.63;10648501;27;20043;-77
2023/05/05 19:57:27;;;;;;;2.05;1.30;;;;;;;2.44;57.06;102233.03;10653105;27;20046;-75
2023/05/05 20:02:29;;;;;;;3.15;1.30;;;;;;;2.47;56.81;102222.63;10650197;27;20031;-75
2023/05/05 20:07:31;;;;;;;3.20;1.67;;;;;;;2.45;57.29;102232.81;10652912;27;20031;-74
2023/05/05 20:12:33;;;;;;;5.22;2.72;;;;;;;2.42;57.37;102225.88;10650154;27;20043;-75
2023/05/05 20:17:35;;;;;;;5.50;2.72;;;;;;;2.34;57.81;102223.28;10648842;28;20405;-75
2023/05/05 20:22:38;;;;;;;11.15;4.55;;;;;;;2.21;58.80;102230.41;10650947;28;20035;-74
2023/05/05 20:27:40;;;;;;;9.93;4.22;;;;;;;2.23;58.61;102222.91;10624895;27;20048;-76
2023/05/05 20:32:42;;;;;;;8.27;4.57;;;;;;;2.21;59.85;102219.56;10621528;28;20039;-74
2023/05/05 20:37:44;;;;;;;10.63;6.78;;;;;;;2.27;59.51;102226.97;10618953;28;20040;-75
2023/05/05 20:42:46;;;;;;;15.25;6.93;;;;;;;2.16;60.08;102235.53;10605023;28;20042;-75
2023/05/05 20:47:49;;;;;;;12.13;5.55;;;;;;;1.94;60.62;102224.63;10621157;28;20032;-76
2023/05/05 20:52:52;;;;;;;7.03;4.07;;;;;;;1.86;61.02;102229.25;10591954;28;20047;-75
2023/05/05 20:57:54;;;;;;;7.30;3.80;;;;;;;1.71;61.45;102238.19;10595499;28;20041;-76
2023/05/05 21:02:57;;;;;;;5.32;3.42;;;;;;;1.85;61.61;102236.53;10622859;28;20042;-75
2023/05/05 21:07:59;;;;;;;5.70;3.22;;;;;;;1.77;62.06;102244.75;10602116;28;20036;-76
2023/05/05 21:13:01;;;;;;;6.35;3.03;;;;;;;1.81;61.86;102235.22;10617817;27;20035;-76
2023/05/05 21:18:04;;;;;;;4.75;2.83;;;;;;;1.76;61.77;102232.25;10626138;27;20505;-75
2023/05/05 21:23:06;;;;;;;6.18;3.13;;;;;;;1.59;61.89;102233.41;10643838;27;20138;-75
2023/05/05 21:28:08;;;;;;;6.55;3.35;;;;;;;1.67;62.09;102227.91;10613219;27;20056;-75
2023/05/05 21:33:10;;;;;;;3.28;2.30;;;;;;;1.56;62.06;102234.59;10623603;27;20056;-74
2023/05/05 21:38:13;;;;;;;4.38;2.38;;;;;;;1.64;61.89;102228.28;10616794;28;20050;-74
2023/05/05 21:43:15;;;;;;;7.28;2.80;;;;;;;1.70;61.26;102230.25;10612249;28;20038;-74
2023/05/05 21:48:18;;;;;;;4.63;1.95;;;;;;;1.66;61.33;102232.50;10556109;28;20048;-73
2023/05/05 21:53:20;;;;;;;3.47;1.90;;;;;;;1.62;61.73;102227.63;10591046;27;20516;-74
2023/05/05 21:58:23;;;;;;;6.35;2.60;;;;;;;1.69;61.46;102231.28;10615355;28;20039;-74
2023/05/05 22:03:25;;;;;;;5.20;2.60;;;;;;;1.48;61.83;102230.13;10615446;28;20046;-73
2023/05/05 22:08:28;;;;;;;7.03;3.42;;;;;;;1.44;62.27;102233.38;10614724;28;20050;-73
2023/05/05 22:13:30;;;;;;;4.78;2.63;;;;;;;1.30;62.17;102232.28;10614734;28;20039;-74
2023/05/05 22:18:33;;;;;;;5.10;2.80;;;;;;;1.30;62.36;102231.47;10594531;28;20050;-74
2023/05/05 22:23:36;;;;;;;5.55;2.97;;;;;;;1.30;62.42;102229.59;10594724;28;20063;-73
2023/05/05 22:28:39;;;;;;;3.83;2.30;;;;;;;1.09;62.62;102224.00;10643750;27;20123;-73
2023/05/05 22:33:41;;;;;;;4.90;2.55;;;;;;;1.04;62.92;102223.69;10638130;27;20034;-73
2023/05/05 22:38:43;;;;;;;5.30;2.90;;;;;;;0.82;63.54;102223.50;10656912;27;20512;-73
2023/05/05 22:43:46;;;;;;;4.07;2.70;;;;;;;0.83;63.09;102214.38;10621902;27;20050;-73
2023/05/05 22:48:48;;;;;;;6.10;3.30;;;;;;;0.94;63.49;102223.94;10638712;27;20043;-74
2023/05/05 22:53:50;;;;;;;5.90;3.50;;;;;;;0.76;63.84;102218.81;10655089;27;20508;-73
2023/05/05 22:58:52;;;;;;;5.03;3.22;;;;;;;0.66;64.86;102223.59;10656607;27;20054;-74
2023/05/05 23:03:55;;;;;;;6.93;3.53;;;;;;;0.73;64.62;102218.34;10656101;27;20444;-74
2023/05/05 23:08:57;;;;;;;7.18;3.55;;;;;;;0.87;64.54;102231.09;10655820;27;20050;-73
2023/05/05 23:13:59;;;;;;;6.75;3.38;;;;;;;0.84;64.27;102209.81;10654929;27;20039;-74
2023/05/05 23:19:01;;;;;;;7.57;3.42;;;;;;;1.03;63.66;102219.31;10655556;27;20039;-74
2023/05/05 23:24:03;;;;;;;8.57;3.47;;;;;;;1.05;63.42;102218.13;10653763;27;20409;-74
2023/05/05 23:29:05;;;;;;;7.43;3.63;;;;;;;1.07;63.17;102215.25;10653849;27;20047;-74
2023/05/05 23:34:07;;;;;;;7.70;3.78;;;;;;;1.06;63.20;102222.53;10647816;27;20504;-74